Time;durP1;ratioP1;P1;durP2;ratioP2;P2;SDS_P1;SDS_P2;PMS_P1;PMS_P2;Temp;Humidity;BMP_temperature;BMP_pressure;BME280_temperature;BME280_humidity;BME280_pressure;Samples;Min_cycle;Max_cycle;Signal;HPM_P1;HPM_P2
2021/12/09 00:00:49;;;;;;;21.93;9.57;;;1.60;99.90;;;;;;5099129;28;20521;-50
2021/12/09 00:03:17;;;;;;;29.07;11.03;;;1.50;99.90;;;;;;5099012;28;20415;-51
2021/12/09 00:05:46;;;;;;;23.83;9.90;;;1.60;99.90;;;;;;5098670;28;20454;-50
2021/12/09 00:08:14;;;;;;;29.97;12.17;;;1.60;99.90;;;;;;5098335;28;20466;-46
2021/12/09 00:10:41;;;;;;;23.90;9.67;;;1.60;99.90;;;;;;5098892;28;20438;-45
2021/12/09 00:13:08;;;;;;;34.17;12.90;;;1.60;99.90;;;;;;5098550;28;20470;-46
2021/12/09 00:15:35;;;;;;;34.10;10.93;;;1.60;99.90;;;;;;5098680;28;20473;-48
2021/12/09 00:18:02;;;;;;;24.93;8.60;;;1.50;99.90;;;;;;5098528;28;20431;-50
2021/12/09 00:20:30;;;;;;;40.30;11.67;;;1.50;99.90;;;;;;5099066;28;20480;-50
2021/12/09 00:22:57;;;;;;;21.03;11.43;;;1.60;99.90;;;;;;5099215;28;20756;-47
2021/12/09 00:25:24;;;;;;;34.93;8.23;;;1.50;99.90;;;;;;5099351;28;20424;-50
2021/12/09 00:27:52;;;;;;;27.73;8.93;;;1.50;99.90;;;;;;5099678;28;20430;-45
2021/12/09 00:30:20;;;;;;;23.33;11.17;;;1.50;99.90;;;;;;5099051;28;20447;-50
2021/12/09 00:32:47;;;;;;;25.20;9.37;;;1.50;99.90;;;;;;5099093;28;20449;-46
2021/12/09 00:35:16;;;;;;;26.17;12.30;;;1.50;99.90;;;;;;5098350;28;20489;-43
2021/12/09 00:37:54;;;;;;;22.10;7.87;;;1.40;99.90;;;;;;5098675;28;20499;-48
2021/12/09 00:40:21;;;;;;;34.40;10.43;;;1.40;99.90;;;;;;5098592;28;20484;-50
2021/12/09 00:42:48;;;;;;;18.40;9.17;;;1.50;99.90;;;;;;5099273;28;20425;-54
2021/12/09 00:45:15;;;;;;;24.50;11.93;;;1.40;99.90;;;;;;5099511;28;20454;-50
2021/12/09 00:47:42;;;;;;;20.60;9.77;;;1.50;99.90;;;;;;5099453;28;20450;-49
2021/12/09 00:50:10;;;;;;;23.63;11.83;;;1.50;99.90;;;;;;5099626;28;20454;-51
2021/12/09 00:52:37;;;;;;;15.67;8.30;;;1.50;99.90;;;;;;5099604;28;20464;-44
2021/12/09 00:55:07;;;;;;;25.77;11.23;;;1.50;99.90;;;;;;5099420;28;20476;-45
2021/12/09 00:57:34;;;;;;;22.13;9.87;;;1.50;99.90;;;;;;5099172;28;20446;-48
2021/12/09 01:00:01;;;;;;;25.13;12.23;;;1.50;99.90;;;;;;5099251;28;20434;-50
2021/12/09 01:02:28;;;;;;;33.23;10.83;;;1.50;99.90;;;;;;5098863;28;20438;-44
2021/12/09 01:04:54;;;;;;;27.97;11.60;;;1.40;99.90;;;;;;5099115;28;20427;-44
2021/12/09 01:07:21;;;;;;;32.20;11.77;;;1.50;99.90;;;;;;5098873;28;20458;-50
2021/12/09 01:09:48;;;;;;;27.40;12.80;;;1.40;99.90;;;;;;5098993;28;20464;-48
2021/12/09 01:12:16;;;;;;;23.20;10.37;;;1.50;99.90;;;;;;5098970;28;20457;-46
2021/12/09 01:14:43;;;;;;;17.80;8.43;;;1.40;99.90;;;;;;5098491;28;20516;-51
2021/12/09 01:17:11;;;;;;;26.93;12.33;;;1.40;99.90;;;;;;5099008;28;20476;-50
2021/12/09 01:19:39;;;;;;;13.53;8.37;;;1.40;99.90;;;;;;5098860;28;20481;-50
2021/12/09 01:22:06;;;;;;;22.57;9.03;;;1.30;99.90;;;;;;5099009;28;20445;-47
2021/12/09 01:24:33;;;;;;;31.50;11.00;;;1.30;99.90;;;;;;5098501;28;20450;-51
2021/12/09 01:27:01;;;;;;;38.23;12.10;;;1.30;99.90;;;;;;5098668;28;20443;-53
2021/12/09 01:29:34;;;;;;;23.83;10.63;;;1.30;99.90;;;;;;5098421;28;20456;-45
2021/12/09 01:32:04;;;;;;;28.10;10.73;;;1.30;99.90;;;;;;5097436;28;20477;-47
2021/12/09 01:34:32;;;;;;;22.50;11.63;;;1.30;99.90;;;;;;5098054;28;20504;-43
2021/12/09 01:36:59;;;;;;;21.63;9.27;;;1.30;99.90;;;;;;5098052;28;20469;-45
2021/12/09 01:39:27;;;;;;;23.93;10.07;;;1.40;99.90;;;;;;5097019;28;20468;-44
2021/12/09 01:41:54;;;;;;;30.03;11.43;;;1.40;99.90;;;;;;5096681;28;20466;-50
2021/12/09 01:44:23;;;;;;;23.37;9.87;;;1.40;99.90;;;;;;5096587;28;20450;-47
2021/12/09 01:46:51;;;;;;;26.63;12.80;;;1.40;99.90;;;;;;5097161;28;20484;-45
2021/12/09 01:49:18;;;;;;;20.27;10.20;;;1.40;99.90;;;;;;5096855;28;20450;-47
2021/12/09 01:51:46;;;;;;;22.13;11.80;;;1.40;99.90;;;;;;5096716;28;20475;-46
2021/12/09 01:54:13;;;;;;;26.80;12.50;;;1.50;99.90;;;;;;5097141;28;20724;-47
2021/12/09 01:56:40;;;;;;;29.70;11.47;;;1.40;99.90;;;;;;5096986;28;20501;-49
2021/12/09 01:59:08;;;;;;;23.33;11.57;;;1.40;99.90;;;;;;5096919;28;20469;-50
2021/12/09 02:01:36;;;;;;;23.73;11.07;;;1.40;99.90;;;;;;5096462;28;20438;-45
2021/12/09 02:04:07;;;;;;;24.10;9.20;;;1.30;99.90;;;;;;5096633;28;20467;-49
2021/12/09 02:06:35;;;;;;;33.50;12.50;;;1.40;99.90;;;;;;5097065;28;20433;-48
2021/12/09 02:09:03;;;;;;;21.77;10.83;;;1.40;99.90;;;;;;5096730;28;20426;-43
2021/12/09 02:11:30;;;;;;;27.47;12.80;;;1.40;99.90;;;;;;5096982;28;20442;-46
2021/12/09 02:13:57;;;;;;;38.87;13.30;;;1.40;99.90;;;;;;5096115;28;20447;-47
2021/12/09 02:16:25;;;;;;;24.53;10.47;;;1.40;99.90;;;;;;5096104;28;20497;-50
2021/12/09 02:18:52;;;;;;;27.37;13.30;;;1.40;99.90;;;;;;5096547;28;20465;-45
2021/12/09 02:21:22;;;;;;;42.50;14.40;;;1.40;99.90;;;;;;5096699;28;20488;-48
2021/12/09 02:23:51;;;;;;;27.23;9.77;;;1.40;99.90;;;;;;5097238;28;20462;-49
2021/12/09 02:26:21;;;;;;;35.33;12.70;;;1.30;99.90;;;;;;5095863;28;20465;-44
2021/12/09 02:28:51;;;;;;;34.27;12.17;;;1.30;99.90;;;;;;5096400;28;20456;-46
2021/12/09 02:31:18;;;;;;;29.30;12.47;;;1.30;99.90;;;;;;5090013;28;20493;-44
2021/12/09 02:33:45;;;;;;;31.10;11.10;;;1.30;99.90;;;;;;5083640;28;20480;-42
2021/12/09 02:36:11;;;;;;;25.77;10.67;;;1.30;99.90;;;;;;5083649;28;20493;-44
2021/12/09 02:38:44;;;;;;;20.47;10.97;;;1.30;99.90;;;;;;5083334;28;20478;-43
2021/12/09 02:41:15;;;;;;;20.03;8.67;;;1.30;99.90;;;;;;5082653;28;20503;-45
2021/12/09 02:43:43;;;;;;;28.63;13.47;;;1.40;99.90;;;;;;5082840;28;20483;-42
2021/12/09 02:46:10;;;;;;;25.47;10.77;;;1.30;99.90;;;;;;5083265;28;20446;-44
2021/12/09 02:48:37;;;;;;;39.83;11.50;;;1.30;99.90;;;;;;5084118;28;20478;-44
2021/12/09 02:51:05;;;;;;;29.40;16.40;;;1.30;99.90;;;;;;5086303;28;20442;-44
2021/12/09 02:53:33;;;;;;;40.97;13.90;;;1.30;99.90;;;;;;5084329;28;20444;-45
2021/12/09 02:56:01;;;;;;;36.37;12.33;;;1.30;99.90;;;;;;5083817;28;20483;-40
2021/12/09 02:58:28;;;;;;;27.10;10.43;;;1.30;99.90;;;;;;5084183;28;20476;-44
2021/12/09 03:00:58;;;;;;;26.07;12.53;;;1.30;99.90;;;;;;5084099;28;20465;-41
2021/12/09 03:03:25;;;;;;;32.37;10.50;;;1.30;99.90;;;;;;5084012;28;20841;-42
2021/12/09 03:05:53;;;;;;;29.90;12.37;;;1.30;99.90;;;;;;5083232;28;20490;-42
2021/12/09 03:08:32;;;;;;;34.50;13.03;;;1.30;99.90;;;;;;5084294;28;20468;-43
2021/12/09 03:10:58;;;;;;;27.13;10.20;;;1.30;99.90;;;;;;5083587;28;20520;-42
2021/12/09 03:13:26;;;;;;;21.30;11.90;;;1.30;99.90;;;;;;5084075;28;20423;-45
2021/12/09 03:15:53;;;;;;;24.70;10.60;;;1.30;99.90;;;;;;5085109;28;20862;-44
2021/12/09 03:18:20;;;;;;;26.60;11.60;;;1.30;99.90;;;;;;5085450;28;20936;-42
2021/12/09 03:20:46;;;;;;;25.40;9.33;;;1.30;99.90;;;;;;5083549;28;20477;-42
2021/12/09 03:23:13;;;;;;;23.33;11.80;;;1.30;99.90;;;;;;5083451;28;20469;-43
2021/12/09 03:25:41;;;;;;;28.07;11.70;;;1.30;99.90;;;;;;5083061;28;20936;-44
2021/12/09 03:28:08;;;;;;;20.23;11.40;;;1.40;99.90;;;;;;5081358;28;20473;-45
2021/12/09 03:30:36;;;;;;;28.37;12.30;;;1.40;99.90;;;;;;5082885;28;21056;-43
2021/12/09 03:33:03;;;;;;;35.70;15.83;;;1.40;99.90;;;;;;5082464;28;20497;-47
2021/12/09 03:35:30;;;;;;;31.30;11.93;;;1.30;99.90;;;;;;5082802;28;20464;-46
2021/12/09 03:37:56;;;;;;;47.67;12.03;;;1.30;99.90;;;;;;5083046;28;20570;-43
2021/12/09 03:40:23;;;;;;;24.80;12.87;;;1.30;99.90;;;;;;5082470;28;20533;-43
2021/12/09 03:42:50;;;;;;;22.60;10.23;;;1.30;99.90;;;;;;5085009;28;20475;-45
2021/12/09 03:45:17;;;;;;;25.27;9.40;;;1.20;99.90;;;;;;5084176;28;20922;-43
2021/12/09 03:47:45;;;;;;;31.17;13.23;;;1.20;99.90;;;;;;5082156;28;20994;-44
2021/12/09 03:50:15;;;;;;;25.47;9.57;;;1.30;99.90;;;;;;5082608;28;20536;-45
2021/12/09 03:52:42;;;;;;;35.00;13.77;;;1.30;99.90;;;;;;5083311;28;20449;-49
2021/12/09 03:55:09;;;;;;;33.17;10.83;;;1.30;99.90;;;;;;5082856;28;20519;-44
2021/12/09 03:57:36;;;;;;;25.53;11.93;;;1.30;99.90;;;;;;5083080;28;21036;-43
2021/12/09 04:00:06;;;;;;;37.40;14.30;;;1.30;99.90;;;;;;5082897;28;20445;-43
2021/12/09 04:02:32;;;;;;;23.70;10.23;;;1.30;99.90;;;;;;5083223;28;20899;-44
2021/12/09 04:05:00;;;;;;;36.93;13.17;;;1.30;99.90;;;;;;5083351;28;20441;-46
2021/12/09 04:07:27;;;;;;;32.17;11.20;;;1.30;99.90;;;;;;5082726;28;20527;-43
2021/12/09 04:09:54;;;;;;;29.47;10.87;;;1.30;99.90;;;;;;5083058;28;20476;-44
2021/12/09 04:12:21;;;;;;;20.33;9.63;;;1.30;99.90;;;;;;5083235;28;20479;-42
2021/12/09 04:14:47;;;;;;;18.37;8.13;;;1.30;99.90;;;;;;5082808;28;20508;-42
2021/12/09 04:17:14;;;;;;;31.13;11.10;;;1.30;99.90;;;;;;5082365;28;20547;-41
2021/12/09 04:19:47;;;;;;;24.90;10.30;;;1.30;99.90;;;;;;5083911;28;20464;-42
2021/12/09 04:22:16;;;;;;;23.70;8.13;;;1.20;99.90;;;;;;5085599;28;20470;-43
2021/12/09 04:24:43;;;;;;;37.63;14.20;;;1.20;99.90;;;;;;5083667;28;20496;-46
2021/12/09 04:27:10;;;;;;;18.53;9.40;;;1.20;99.90;;;;;;5082475;28;20453;-40
2021/12/09 04:29:39;;;;;;;24.50;11.87;;;1.20;99.90;;;;;;5081757;28;20475;-42
2021/12/09 04:32:07;;;;;;;29.60;12.80;;;1.20;99.90;;;;;;5082330;28;20446;-45
2021/12/09 04:34:33;;;;;;;17.70;10.40;;;1.20;99.90;;;;;;5081463;28;20850;-44
2021/12/09 04:37:00;;;;;;;18.07;8.00;;;1.20;99.90;;;;;;5081708;28;20499;-47
2021/12/09 04:39:29;;;;;;;34.60;13.03;;;1.20;99.90;;;;;;5084296;28;20454;-43
2021/12/09 04:41:56;;;;;;;28.33;15.77;;;1.20;99.90;;;;;;5086228;28;20458;-44
2021/12/09 04:44:23;;;;;;;30.40;12.60;;;1.30;99.90;;;;;;5086377;28;20453;-44
2021/12/09 04:46:50;;;;;;;31.43;12.00;;;1.30;99.90;;;;;;5086517;28;20507;-44
2021/12/09 04:49:17;;;;;;;23.60;10.43;;;1.30;99.90;;;;;;5088522;28;20442;-43
2021/12/09 04:51:44;;;;;;;32.87;11.13;;;1.30;99.90;;;;;;5086935;28;20469;-44
2021/12/09 04:54:11;;;;;;;28.03;11.40;;;1.20;99.90;;;;;;5086662;28;20468;-46
2021/12/09 04:56:39;;;;;;;33.70;11.20;;;1.20;99.90;;;;;;5085821;28;20496;-46
2021/12/09 04:59:06;;;;;;;35.17;13.27;;;1.20;99.90;;;;;;5087094;28;20454;-44
2021/12/09 05:01:33;;;;;;;28.37;9.30;;;1.30;99.90;;;;;;5094930;28;20494;-47
2021/12/09 05:04:00;;;;;;;24.00;10.00;;;1.30;99.90;;;;;;5092172;28;20452;-43
2021/12/09 05:06:29;;;;;;;34.50;12.67;;;1.30;99.90;;;;;;5085034;28;20453;-43
2021/12/09 05:08:56;;;;;;;28.83;12.17;;;1.30;99.90;;;;;;5084708;28;20539;-44
2021/12/09 05:11:48;;;;;;;39.57;15.60;;;1.30;99.90;;;;;;5084823;28;20916;-42
2021/12/09 05:14:17;;;;;;;28.53;12.90;;;1.30;99.90;;;;;;5085186;28;20477;-43
2021/12/09 05:16:45;;;;;;;26.87;10.93;;;1.30;99.90;;;;;;5085058;28;20550;-46
2021/12/09 05:19:11;;;;;;;18.00;10.80;;;1.30;99.90;;;;;;5085581;28;20473;-44
2021/12/09 05:21:39;;;;;;;28.50;10.30;;;1.30;99.90;;;;;;5087795;28;20445;-44
2021/12/09 05:24:07;;;;;;;24.80;11.43;;;1.30;99.90;;;;;;5086843;28;20482;-44
2021/12/09 05:26:40;;;;;;;25.73;12.43;;;1.30;99.90;;;;;;5086836;28;20430;-43
2021/12/09 05:29:07;;;;;;;27.43;11.67;;;1.30;99.90;;;;;;5086358;28;20438;-46
2021/12/09 05:34:37;;;;;;;38.43;12.90;;;1.30;99.90;;;;;;5043864;28;20435;-44
2021/12/09 05:37:04;;;;;;;25.73;12.60;;;1.30;99.90;;;;;;5043072;28;20573;-43
2021/12/09 05:39:33;;;;;;;31.03;12.70;;;1.30;99.90;;;;;;5062237;28;20466;-46
2021/12/09 05:42:00;;;;;;;32.77;13.63;;;1.40;99.90;;;;;;5084006;28;20520;-46
2021/12/09 05:44:27;;;;;;;22.80;10.53;;;1.40;99.90;;;;;;5083974;28;20870;-46
2021/12/09 05:46:55;;;;;;;33.03;13.00;;;1.40;99.90;;;;;;5085056;28;20531;-41
2021/12/09 05:49:22;;;;;;;30.70;12.20;;;1.40;99.90;;;;;;5086904;28;20434;-43
2021/12/09 05:51:49;;;;;;;27.43;12.40;;;1.40;99.90;;;;;;5084454;28;20454;-43
2021/12/09 05:54:16;;;;;;;12.33;7.13;;;1.40;99.90;;;;;;5085012;28;20518;-45
2021/12/09 05:56:45;;;;;;;23.93;11.80;;;1.40;99.90;;;;;;5084791;28;20493;-43
2021/12/09 05:59:12;;;;;;;31.73;13.00;;;1.40;99.90;;;;;;5085076;28;20476;-42
2021/12/09 06:01:40;;;;;;;25.67;12.60;;;1.40;99.90;;;;;;5084601;28;20472;-45
2021/12/09 06:04:09;;;;;;;21.00;10.40;;;1.40;99.90;;;;;;5084962;28;20473;-44
2021/12/09 06:06:36;;;;;;;13.37;8.27;;;1.40;99.90;;;;;;5087325;28;20454;-42
2021/12/09 06:09:08;;;;;;;30.63;10.97;;;1.30;99.90;;;;;;5086281;28;20560;-44
2021/12/09 06:11:38;;;;;;;26.20;9.17;;;1.30;99.90;;;;;;5084398;28;20492;-44
2021/12/09 06:14:05;;;;;;;27.63;12.10;;;1.30;99.90;;;;;;5085691;28;20461;-43
2021/12/09 06:16:32;;;;;;;31.70;10.53;;;1.30;99.90;;;;;;5084570;28;20967;-43
2021/12/09 06:19:01;;;;;;;25.03;11.03;;;1.30;99.90;;;;;;5084607;28;20441;-43
2021/12/09 06:21:29;;;;;;;20.03;9.67;;;1.40;99.90;;;;;;5085568;28;20506;-43
2021/12/09 06:23:56;;;;;;;21.00;10.60;;;1.40;99.90;;;;;;5083755;28;20915;-45
2021/12/09 06:26:23;;;;;;;38.23;11.93;;;1.40;99.90;;;;;;5083862;28;20951;-44
2021/12/09 06:28:50;;;;;;;40.20;12.27;;;1.40;99.90;;;;;;5084194;28;20450;-45
2021/12/09 06:31:17;;;;;;;24.00;10.20;;;1.40;99.90;;;;;;5083920;28;20535;-45
2021/12/09 06:33:44;;;;;;;20.40;9.47;;;1.40;99.90;;;;;;5084530;28;20430;-44
2021/12/09 06:36:10;;;;;;;34.03;13.43;;;1.40;99.90;;;;;;5084369;28;20510;-44
2021/12/09 06:38:39;;;;;;;26.43;11.37;;;1.40;99.90;;;;;;5083584;28;20476;-44
2021/12/09 06:41:10;;;;;;;26.67;10.53;;;1.50;99.90;;;;;;5083859;28;20833;-45
2021/12/09 06:43:40;;;;;;;29.00;13.00;;;1.40;99.90;;;;;;5082640;28;20465;-47
2021/12/09 06:46:08;;;;;;;28.60;13.10;;;1.50;99.90;;;;;;5083907;28;20454;-45
2021/12/09 06:48:37;;;;;;;26.10;11.93;;;1.50;99.90;;;;;;5093055;28;20462;-43
2021/12/09 06:51:05;;;;;;;28.73;11.00;;;1.50;99.90;;;;;;5093244;28;20433;-44
2021/12/09 06:53:33;;;;;;;28.57;11.73;;;1.50;99.90;;;;;;5089698;28;20485;-45
2021/12/09 06:56:01;;;;;;;40.13;17.03;;;1.50;99.90;;;;;;5091939;28;20438;-42
2021/12/09 06:58:28;;;;;;;31.00;10.93;;;1.40;99.90;;;;;;5091891;28;20470;-47
2021/12/09 07:00:57;;;;;;;27.10;12.10;;;1.40;99.90;;;;;;5091611;28;20441;-41
2021/12/09 07:03:25;;;;;;;24.17;12.10;;;1.40;99.90;;;;;;5091971;28;20481;-45
2021/12/09 07:05:53;;;;;;;27.50;10.27;;;1.40;99.90;;;;;;5095547;28;20431;-44
2021/12/09 07:08:21;;;;;;;22.50;11.30;;;1.40;99.90;;;;;;5093259;28;20462;-43
2021/12/09 07:10:49;;;;;;;24.03;10.50;;;1.40;99.90;;;;;;5094443;28;20442;-43
2021/12/09 07:13:17;;;;;;;21.83;11.33;;;1.30;99.90;;;;;;5089044;28;20471;-45
2021/12/09 07:15:44;;;;;;;35.37;15.57;;;1.30;99.90;;;;;;5083360;28;20479;-45
2021/12/09 07:18:11;;;;;;;31.60;10.30;;;1.30;99.90;;;;;;5084955;28;20501;-43
2021/12/09 07:20:38;;;;;;;40.50;18.43;;;1.30;99.90;;;;;;5091305;28;20457;-50
2021/12/09 07:23:07;;;;;;;30.40;13.90;;;1.30;99.90;;;;;;5094022;28;21025;-51
2021/12/09 07:25:33;;;;;;;37.63;14.23;;;1.30;99.90;;;;;;5092882;28;20550;-46
2021/12/09 07:28:00;;;;;;;35.47;12.73;;;1.30;99.90;;;;;;5092508;28;20481;-45
2021/12/09 07:30:31;;;;;;;41.37;12.90;;;1.30;99.90;;;;;;5093112;28;20465;-44
2021/12/09 07:32:58;;;;;;;23.83;11.00;;;1.30;99.90;;;;;;5093386;28;20451;-42
2021/12/09 07:35:30;;;;;;;27.97;12.67;;;1.30;99.90;;;;;;5093412;28;20453;-44
2021/12/09 07:37:57;;;;;;;34.37;15.17;;;1.30;99.90;;;;;;5092149;28;20488;-43
2021/12/09 07:40:24;;;;;;;35.90;11.53;;;1.30;99.90;;;;;;5092518;28;20465;-43
2021/12/09 07:42:51;;;;;;;28.73;14.67;;;1.30;99.90;;;;;;5092453;28;20507;-44
2021/12/09 07:45:18;;;;;;;44.03;11.83;;;1.30;99.90;;;;;;5093130;28;20450;-46
2021/12/09 07:47:49;;;;;;;22.43;9.60;;;1.30;99.90;;;;;;5092872;28;20501;-43
2021/12/09 07:50:18;;;;;;;50.13;15.57;;;1.40;99.90;;;;;;5095027;28;20438;-48
2021/12/09 07:52:48;;;;;;;43.03;12.23;;;1.30;99.90;;;;;;5096222;28;20469;-44
2021/12/09 07:55:17;;;;;;;34.23;13.57;;;1.30;99.90;;;;;;5095629;28;20453;-48
2021/12/09 07:57:45;;;;;;;24.57;11.90;;;1.30;99.90;;;;;;5095932;28;20492;-45
2021/12/09 08:00:15;;;;;;;29.53;12.63;;;1.30;99.90;;;;;;5096637;28;20437;-49
2021/12/09 08:02:43;;;;;;;28.67;10.07;;;1.30;99.90;;;;;;5095876;28;20426;-46
2021/12/09 08:05:14;;;;;;;31.07;13.37;;;1.30;99.90;;;;;;5096405;28;20460;-49
2021/12/09 08:07:41;;;;;;;33.90;13.17;;;1.40;99.90;;;;;;5096617;28;20418;-54
2021/12/09 08:10:09;;;;;;;24.17;11.80;;;1.30;99.90;;;;;;5095765;28;20481;-49
2021/12/09 08:12:37;;;;;;;27.57;13.53;;;1.40;99.90;;;;;;5093077;28;20446;-48
2021/12/09 08:15:06;;;;;;;31.03;14.43;;;1.30;99.90;;;;;;5096533;28;20455;-51
2021/12/09 08:17:56;;;;;;;35.50;14.23;;;1.30;99.90;;;;;;5091214;28;20520;-50
2021/12/09 08:20:28;;;;;;;31.90;10.27;;;1.20;99.90;;;;;;5096500;28;20454;-51
2021/12/09 08:22:55;;;;;;;25.03;9.73;;;1.30;99.90;;;;;;5095442;28;20554;-47
2021/12/09 08:25:23;;;;;;;32.13;13.40;;;1.30;99.90;;;;;;5097319;28;20442;-45
2021/12/09 08:27:51;;;;;;;41.00;14.20;;;1.30;99.90;;;;;;5096812;28;20487;-46
2021/12/09 08:30:21;;;;;;;19.53;10.93;;;1.30;99.90;;;;;;5096140;28;20446;-47
2021/12/09 08:32:48;;;;;;;23.70;11.73;;;1.40;99.90;;;;;;5100057;28;20435;-44
2021/12/09 08:35:16;;;;;;;33.23;12.60;;;1.40;99.90;;;;;;5099459;28;20460;-44
2021/12/09 08:37:46;;;;;;;22.87;12.60;;;1.30;99.90;;;;;;5099784;28;20485;-50
2021/12/09 08:40:15;;;;;;;25.50;12.43;;;1.30;99.90;;;;;;5099365;28;20466;-46
2021/12/09 08:42:43;;;;;;;22.57;10.20;;;1.30;99.90;;;;;;5098909;28;20449;-46
2021/12/09 08:45:12;;;;;;;27.70;10.70;;;1.20;99.90;;;;;;5099544;28;20485;-48
2021/12/09 08:47:40;;;;;;;33.47;11.67;;;1.30;99.90;;;;;;5099587;28;20436;-45
2021/12/09 08:50:08;;;;;;;50.20;14.53;;;1.30;99.90;;;;;;5099702;28;20465;-44
2021/12/09 08:52:36;;;;;;;39.40;16.13;;;1.30;99.90;;;;;;5099050;28;20454;-44
2021/12/09 08:55:05;;;;;;;25.50;12.10;;;1.30;99.90;;;;;;5099238;28;20469;-44
2021/12/09 08:57:32;;;;;;;21.07;11.67;;;1.40;99.90;;;;;;5099016;28;20520;-47
2021/12/09 09:00:00;;;;;;;30.20;13.70;;;1.40;99.90;;;;;;5099266;28;20462;-46
2021/12/09 09:02:27;;;;;;;33.67;14.13;;;1.30;99.90;;;;;;5099425;28;20422;-49
2021/12/09 09:04:55;;;;;;;24.33;12.53;;;1.30;99.90;;;;;;5099535;28;20533;-50
2021/12/09 09:07:22;;;;;;;33.37;14.37;;;1.30;99.90;;;;;;5099270;28;20446;-46
2021/12/09 09:09:49;;;;;;;42.70;13.90;;;1.40;99.90;;;;;;5098933;28;20521;-46
2021/12/09 09:12:17;;;;;;;48.97;15.67;;;1.40;99.90;;;;;;5099158;28;20430;-46
2021/12/09 09:14:45;;;;;;;34.43;13.87;;;1.40;99.90;;;;;;5099218;28;20470;-48
2021/12/09 09:17:13;;;;;;;29.63;14.43;;;1.40;99.90;;;;;;5098809;28;20508;-46
2021/12/09 09:19:39;;;;;;;30.03;16.07;;;1.40;99.90;;;;;;5098531;28;20466;-45
2021/12/09 09:22:07;;;;;;;31.33;16.50;;;1.40;99.90;;;;;;5097955;28;20499;-45
2021/12/09 09:24:34;;;;;;;24.23;11.97;;;1.50;99.90;;;;;;5097318;28;20713;-45
2021/12/09 09:27:01;;;;;;;39.47;14.50;;;1.50;99.90;;;;;;5097973;28;20434;-46
2021/12/09 09:29:32;;;;;;;15.63;6.17;;;1.60;99.90;;;;;;5098346;28;20481;-47
2021/12/09 09:31:59;;;;;;;32.00;14.03;;;1.50;99.90;;;;;;5098668;28;20457;-48
2021/12/09 09:34:26;;;;;;;33.77;13.47;;;1.50;99.90;;;;;;5098469;28;20439;-46
2021/12/09 09:36:53;;;;;;;23.33;15.10;;;1.50;99.90;;;;;;5098358;28;20834;-54
2021/12/09 09:39:22;;;;;;;32.93;15.00;;;1.50;99.90;;;;;;5098599;28;20446;-45
2021/12/09 09:41:59;;;;;;;26.50;10.70;;;1.50;99.90;;;;;;5098457;28;20454;-46
2021/12/09 09:44:33;;;;;;;36.80;15.60;;;1.50;99.90;;;;;;5097983;28;20511;-45
2021/12/09 09:47:04;;;;;;;25.97;11.70;;;1.50;99.90;;;;;;5098220;28;20438;-45
2021/12/09 09:49:34;;;;;;;26.13;12.77;;;1.50;99.90;;;;;;5098479;28;20442;-46
2021/12/09 09:52:01;;;;;;;33.17;11.13;;;1.50;99.90;;;;;;5098342;28;20455;-48
2021/12/09 09:54:30;;;;;;;33.00;14.43;;;1.60;99.90;;;;;;5098301;28;20446;-47
2021/12/09 09:56:58;;;;;;;36.63;15.10;;;1.60;99.90;;;;;;5098183;28;20436;-47
2021/12/09 09:59:25;;;;;;;36.23;13.17;;;1.70;99.90;;;;;;5098071;28;20477;-46
2021/12/09 10:01:55;;;;;;;37.17;11.70;;;1.70;99.90;;;;;;5098245;28;20469;-47
2021/12/09 10:04:33;;;;;;;30.50;12.30;;;1.80;99.90;;;;;;5097576;28;20434;-44
2021/12/09 10:07:03;;;;;;;28.60;11.80;;;1.90;99.90;;;;;;5097517;28;20505;-45
2021/12/09 10:09:30;;;;;;;32.70;14.80;;;1.90;99.90;;;;;;5098034;28;20434;-47
2021/12/09 10:11:59;;;;;;;32.50;12.03;;;1.90;99.90;;;;;;5098040;28;20463;-49
2021/12/09 10:14:28;;;;;;;30.07;11.70;;;2.00;99.90;;;;;;5097957;28;20439;-44
2021/12/09 10:17:07;;;;;;;32.63;15.20;;;2.00;99.90;;;;;;5097505;28;20466;-48
2021/12/09 10:19:37;;;;;;;25.57;13.23;;;2.00;99.90;;;;;;5097642;28;20960;-49
2021/12/09 10:22:07;;;;;;;35.30;10.70;;;2.00;99.90;;;;;;5097739;28;20461;-47
2021/12/09 10:24:35;;;;;;;29.77;12.23;;;1.90;99.90;;;;;;5098012;28;20457;-46
2021/12/09 10:27:02;;;;;;;36.17;14.30;;;1.90;99.90;;;;;;5097096;28;20450;-48
2021/12/09 10:29:32;;;;;;;22.37;12.70;;;1.90;99.90;;;;;;5090425;28;20446;-48
2021/12/09 10:32:02;;;;;;;32.10;13.10;;;1.90;99.90;;;;;;5090410;28;20504;-48
2021/12/09 10:34:36;;;;;;;35.40;14.20;;;1.90;99.90;;;;;;5094071;28;20834;-50
2021/12/09 10:37:08;;;;;;;31.37;12.83;;;2.00;99.90;;;;;;5093798;28;20470;-45
2021/12/09 10:39:39;;;;;;;31.23;14.37;;;2.10;99.90;;;;;;5090649;28;20459;-46
2021/12/09 10:42:12;;;;;;;25.97;10.87;;;2.10;99.90;;;;;;5091025;28;20496;-46
2021/12/09 10:44:51;;;;;;;37.43;15.63;;;2.00;99.90;;;;;;5092287;28;20470;-50
2021/12/09 10:47:35;;;;;;;28.20;11.67;;;2.00;99.90;;;;;;5097000;28;20459;-48
2021/12/09 10:50:11;;;;;;;39.10;16.20;;;1.90;99.90;;;;;;5096738;28;20454;-49
2021/12/09 10:52:44;;;;;;;26.80;11.27;;;2.00;99.90;;;;;;5096762;28;20469;-49
2021/12/09 10:55:22;;;;;;;31.20;13.80;;;2.00;99.90;;;;;;5096955;28;20486;-51
2021/12/09 10:58:10;;;;;;;26.70;11.67;;;2.00;99.90;;;;;;5096690;28;20483;-48
2021/12/09 11:00:44;;;;;;;28.40;15.13;;;1.90;99.90;;;;;;5091556;28;20434;-49
2021/12/09 11:03:23;;;;;;;22.70;11.33;;;1.90;99.90;;;;;;5091411;28;20546;-45
2021/12/09 11:06:00;;;;;;;26.70;12.27;;;1.90;99.90;;;;;;5095024;28;20453;-52
2021/12/09 11:08:32;;;;;;;28.97;13.47;;;2.00;99.90;;;;;;5096984;28;20492;-52
2021/12/09 11:11:07;;;;;;;21.03;10.07;;;1.90;99.90;;;;;;5096970;28;20441;-48
2021/12/09 11:13:44;;;;;;;31.30;14.40;;;2.00;99.90;;;;;;5094651;28;20427;-52
2021/12/09 11:16:14;;;;;;;31.93;12.40;;;2.00;99.90;;;;;;5091003;28;20434;-52
2021/12/09 11:18:45;;;;;;;28.70;13.10;;;2.00;99.90;;;;;;5090611;28;20539;-48
2021/12/09 11:21:16;;;;;;;32.20;14.40;;;2.10;99.90;;;;;;5093790;28;20454;-50
2021/12/09 11:23:49;;;;;;;29.07;11.33;;;2.00;99.90;;;;;;5090038;28;20495;-51
2021/12/09 11:26:40;;;;;;;29.00;12.57;;;2.00;99.90;;;;;;5090754;28;20458;-53
2021/12/09 11:29:13;;;;;;;23.70;12.10;;;2.10;99.90;;;;;;5090722;28;20481;-50
2021/12/09 11:31:55;;;;;;;31.73;13.47;;;2.20;99.90;;;;;;5089695;28;20472;-52
2021/12/09 11:34:28;;;;;;;38.63;16.00;;;2.20;99.90;;;;;;5089453;28;20460;-52
2021/12/09 11:37:03;;;;;;;38.30;12.90;;;2.20;99.90;;;;;;5089383;28;20430;-50
2021/12/09 11:39:34;;;;;;;32.73;13.37;;;2.20;99.90;;;;;;5088543;28;20496;-47
2021/12/09 11:42:21;;;;;;;25.53;12.97;;;2.20;99.90;;;;;;5088627;28;20430;-52
2021/12/09 11:44:49;;;;;;;28.40;11.67;;;2.20;99.90;;;;;;5093001;28;20498;-51
2021/12/09 11:47:17;;;;;;;23.00;11.33;;;2.20;99.90;;;;;;5095246;28;20481;-51
2021/12/09 11:49:46;;;;;;;26.30;10.60;;;2.30;99.90;;;;;;5094835;28;20438;-52
2021/12/09 11:52:14;;;;;;;32.77;13.10;;;2.30;99.90;;;;;;5087500;28;20445;-51
2021/12/09 11:54:50;;;;;;;35.00;13.70;;;2.30;99.90;;;;;;5088864;28;20473;-50
2021/12/09 11:57:30;;;;;;;30.17;13.17;;;2.40;99.90;;;;;;5096296;28;20436;-49
2021/12/09 12:07:20;;;;;;;30.93;15.70;;;2.30;99.90;;;;;;4956789;29;20466;-49
2021/12/09 12:12:50;;;;;;;37.90;13.60;;;2.40;99.90;;;;;;5073978;28;20425;-49
2021/12/09 12:15:51;;;;;;;29.23;14.27;;;2.40;99.90;;;;;;5088901;28;20445;-53
2021/12/09 12:18:36;;;;;;;28.60;11.67;;;2.40;99.90;;;;;;5091548;28;20569;-54
2021/12/09 12:24:44;;;;;;;27.60;13.50;;;2.30;99.90;;;;;;5095368;28;20457;-54
2021/12/09 12:30:54;;;;;;;32.00;13.27;;;2.40;99.90;;;;;;5093171;28;20484;-50
2021/12/09 12:33:31;;;;;;;23.07;10.13;;;2.30;99.90;;;;;;5089962;28;20427;-54
2021/12/09 12:36:26;;;;;;;32.60;12.43;;;2.30;99.90;;;;;;5089997;28;20430;-52
2021/12/09 12:39:14;;;;;;;27.87;12.50;;;2.30;99.90;;;;;;5094641;28;20483;-52
2021/12/09 12:41:58;;;;;;;34.33;12.07;;;2.10;99.90;;;;;;5082353;28;20485;-52
2021/12/09 12:44:26;;;;;;;32.80;13.10;;;2.10;99.90;;;;;;5085922;28;20516;-49
2021/12/09 12:46:58;;;;;;;37.37;12.63;;;2.00;99.90;;;;;;5095293;28;20430;-50
2021/12/09 12:49:34;;;;;;;29.27;12.43;;;2.00;99.90;;;;;;5094584;28;20462;-49
2021/12/09 12:52:07;;;;;;;39.77;15.53;;;2.00;99.90;;;;;;5094642;28;20434;-53
2021/12/09 12:54:48;;;;;;;25.00;10.77;;;2.10;99.90;;;;;;5094855;28;20525;-54
2021/12/09 12:57:30;;;;;;;30.10;10.50;;;2.10;99.90;;;;;;5095315;28;20473;-54
2021/12/09 13:00:13;;;;;;;23.63;11.57;;;2.10;99.90;;;;;;5096334;28;20523;-52
2021/12/09 13:03:12;;;;;;;24.37;13.20;;;2.20;99.90;;;;;;5098622;28;20403;-51
2021/12/09 13:05:57;;;;;;;27.33;11.87;;;2.20;99.90;;;;;;5098296;28;20474;-52
2021/12/09 13:08:48;;;;;;;26.03;11.93;;;2.20;99.90;;;;;;5098718;28;20430;-54
2021/12/09 13:11:19;;;;;;;27.70;11.07;;;2.20;99.90;;;;;;5098692;28;20475;-54